sensor_id;sensor_type;location;lat;lon;timestamp;P1;durP1;ratioP1;P2;durP2;ratioP2
70667;SDS011;58242;51.250;-1.118;2023-04-25T00:00:18;6.72;;;3.15;;
70667;SDS011;58242;51.250;-1.118;2023-04-25T00:02:43;4.82;;;3.28;;
70667;SDS011;58242;51.250;-1.118;2023-04-25T00:05:08;6.70;;;3.67;;
70667;SDS011;58242;51.250;-1.118;2023-04-25T00:07:34;6.05;;;3.25;;
70667;SDS011;58242;51.250;-1.118;2023-04-25T00:09:59;5.80;;;3.03;;
70667;SDS011;58242;51.250;-1.118;2023-04-25T00:12:25;8.60;;;3.28;;
70667;SDS011;58242;51.250;-1.118;2023-04-25T00:14:53;5.37;;;2.73;;
70667;SDS011;58242;51.250;-1.118;2023-04-25T00:17:21;5.70;;;2.83;;
70667;SDS011;58242;51.250;-1.118;2023-04-25T00:19:49;7.05;;;3.00;;
70667;SDS011;58242;51.250;-1.118;2023-04-25T00:22:15;4.55;;;2.50;;
70667;SDS011;58242;51.250;-1.118;2023-04-25T00:24:40;6.28;;;3.20;;
70667;SDS011;58242;51.250;-1.118;2023-04-25T00:27:06;3.28;;;2.40;;
70667;SDS011;58242;51.250;-1.118;2023-04-25T00:29:31;4.10;;;2.78;;
70667;SDS011;58242;51.250;-1.118;2023-04-25T00:31:56;4.75;;;3.15;;
70667;SDS011;58242;51.250;-1.118;2023-04-25T00:34:22;3.83;;;2.25;;
70667;SDS011;58242;51.250;-1.118;2023-04-25T00:36:47;6.15;;;2.53;;
70667;SDS011;58242;51.250;-1.118;2023-04-25T00:39:12;5.82;;;2.90;;
70667;SDS011;58242;51.250;-1.118;2023-04-25T00:41:38;5.15;;;3.33;;
70667;SDS011;58242;51.250;-1.118;2023-04-25T00:44:03;4.28;;;2.45;;
70667;SDS011;58242;51.250;-1.118;2023-04-25T00:46:29;4.68;;;2.85;;
70667;SDS011;58242;51.250;-1.118;2023-04-25T00:48:56;4.53;;;2.72;;
70667;SDS011;58242;51.250;-1.118;2023-04-25T00:51:21;3.47;;;2.40;;
70667;SDS011;58242;51.250;-1.118;2023-04-25T00:53:49;4.45;;;2.40;;
70667;SDS011;58242;51.250;-1.118;2023-04-25T00:56:16;3.03;;;2.67;;
70667;SDS011;58242;51.250;-1.118;2023-04-25T00:58:41;4.78;;;2.83;;
70667;SDS011;58242;51.250;-1.118;2023-04-25T01:01:09;3.45;;;2.47;;
70667;SDS011;58242;51.250;-1.118;2023-04-25T01:03:37;4.45;;;2.80;;
70667;SDS011;58242;51.250;-1.118;2023-04-25T01:06:06;4.00;;;2.78;;
70667;SDS011;58242;51.250;-1.118;2023-04-25T01:08:33;5.18;;;3.00;;
70667;SDS011;58242;51.250;-1.118;2023-04-25T01:10:58;2.92;;;2.60;;
70667;SDS011;58242;51.250;-1.118;2023-04-25T01:13:24;2.55;;;2.33;;
70667;SDS011;58242;51.250;-1.118;2023-04-25T01:15:49;3.08;;;2.72;;
70667;SDS011;58242;51.250;-1.118;2023-04-25T01:18:15;3.05;;;2.75;;
70667;SDS011;58242;51.250;-1.118;2023-04-25T01:20:41;3.97;;;2.40;;
70667;SDS011;58242;51.250;-1.118;2023-04-25T01:23:08;4.35;;;2.50;;
70667;SDS011;58242;51.250;-1.118;2023-04-25T01:25:33;3.45;;;2.58;;
70667;SDS011;58242;51.250;-1.118;2023-04-25T01:27:59;3.05;;;2.67;;
70667;SDS011;58242;51.250;-1.118;2023-04-25T01:30:28;3.08;;;2.10;;
70667;SDS011;58242;51.250;-1.118;2023-04-25T01:32:57;3.33;;;2.70;;
70667;SDS011;58242;51.250;-1.118;2023-04-25T01:35:24;3.75;;;2.50;;
70667;SDS011;58242;51.250;-1.118;2023-04-25T01:37:50;3.28;;;2.90;;
70667;SDS011;58242;51.250;-1.118;2023-04-25T01:40:16;3.13;;;2.83;;
70667;SDS011;58242;51.250;-1.118;2023-04-25T01:42:44;3.42;;;2.58;;
70667;SDS011;58242;51.250;-1.118;2023-04-25T01:45:10;3.97;;;2.92;;
70667;SDS011;58242;51.250;-1.118;2023-04-25T01:47:36;2.78;;;2.58;;
70667;SDS011;58242;51.250;-1.118;2023-04-25T01:50:04;3.90;;;2.90;;
70667;SDS011;58242;51.250;-1.118;2023-04-25T01:52:30;5.47;;;2.90;;
70667;SDS011;58242;51.250;-1.118;2023-04-25T01:54:57;3.72;;;2.75;;
70667;SDS011;58242;51.250;-1.118;2023-04-25T01:57:24;3.83;;;2.80;;
70667;SDS011;58242;51.250;-1.118;2023-04-25T01:59:49;5.68;;;2.30;;
70667;SDS011;58242;51.250;-1.118;2023-04-25T02:02:16;2.53;;;2.33;;
70667;SDS011;58242;51.250;-1.118;2023-04-25T02:04:42;2.80;;;2.60;;
70667;SDS011;58242;51.250;-1.118;2023-04-25T02:07:07;3.42;;;2.50;;
70667;SDS011;58242;51.250;-1.118;2023-04-25T02:09:33;4.30;;;2.50;;
70667;SDS011;58242;51.250;-1.118;2023-04-25T02:11:58;2.45;;;2.25;;
70667;SDS011;58242;51.250;-1.118;2023-04-25T02:14:23;4.88;;;2.28;;
70667;SDS011;58242;51.250;-1.118;2023-04-25T02:16:49;3.15;;;2.85;;
70667;SDS011;58242;51.250;-1.118;2023-04-25T02:19:16;3.90;;;2.38;;
70667;SDS011;58242;51.250;-1.118;2023-04-25T02:21:41;2.63;;;2.42;;
70667;SDS011;58242;51.250;-1.118;2023-04-25T02:24:06;2.95;;;2.50;;
70667;SDS011;58242;51.250;-1.118;2023-04-25T02:26:32;4.03;;;2.58;;
70667;SDS011;58242;51.250;-1.118;2023-04-25T02:28:58;4.55;;;2.20;;
70667;SDS011;58242;51.250;-1.118;2023-04-25T02:31:23;3.08;;;2.20;;
70667;SDS011;58242;51.250;-1.118;2023-04-25T02:33:48;3.08;;;2.40;;
70667;SDS011;58242;51.250;-1.118;2023-04-25T02:36:13;2.55;;;2.35;;
70667;SDS011;58242;51.250;-1.118;2023-04-25T02:38:39;2.35;;;2.20;;
70667;SDS011;58242;51.250;-1.118;2023-04-25T02:41:05;2.65;;;2.03;;
70667;SDS011;58242;51.250;-1.118;2023-04-25T02:43:30;3.25;;;2.28;;
70667;SDS011;58242;51.250;-1.118;2023-04-25T02:45:56;3.58;;;2.40;;
70667;SDS011;58242;51.250;-1.118;2023-04-25T02:48:21;2.65;;;2.42;;
70667;SDS011;58242;51.250;-1.118;2023-04-25T02:50:46;2.92;;;2.35;;
70667;SDS011;58242;51.250;-1.118;2023-04-25T02:53:12;4.18;;;2.53;;
70667;SDS011;58242;51.250;-1.118;2023-04-25T02:55:37;2.47;;;2.33;;
70667;SDS011;58242;51.250;-1.118;2023-04-25T02:58:02;5.32;;;2.20;;
70667;SDS011;58242;51.250;-1.118;2023-04-25T03:00:28;3.75;;;2.60;;
70667;SDS011;58242;51.250;-1.118;2023-04-25T03:02:53;3.85;;;2.47;;
70667;SDS011;58242;51.250;-1.118;2023-04-25T03:05:18;8.52;;;3.30;;
70667;SDS011;58242;51.250;-1.118;2023-04-25T03:07:44;2.90;;;2.40;;
70667;SDS011;58242;51.250;-1.118;2023-04-25T03:10:10;4.90;;;2.95;;
70667;SDS011;58242;51.250;-1.118;2023-04-25T03:12:36;2.15;;;2.05;;
70667;SDS011;58242;51.250;-1.118;2023-04-25T03:15:02;3.15;;;2.22;;
70667;SDS011;58242;51.250;-1.118;2023-04-25T03:17:28;3.33;;;2.50;;
70667;SDS011;58242;51.250;-1.118;2023-04-25T03:19:53;2.58;;;2.20;;
70667;SDS011;58242;51.250;-1.118;2023-04-25T03:22:19;2.80;;;2.40;;
70667;SDS011;58242;51.250;-1.118;2023-04-25T03:24:44;2.85;;;2.63;;
70667;SDS011;58242;51.250;-1.118;2023-04-25T03:27:10;2.25;;;2.15;;
70667;SDS011;58242;51.250;-1.118;2023-04-25T03:29:35;2.60;;;2.40;;
70667;SDS011;58242;51.250;-1.118;2023-04-25T03:32:00;2.75;;;2.55;;
70667;SDS011;58242;51.250;-1.118;2023-04-25T03:34:25;2.47;;;2.03;;
70667;SDS011;58242;51.250;-1.118;2023-04-25T03:36:51;2.67;;;2.47;;
70667;SDS011;58242;51.250;-1.118;2023-04-25T03:39:16;2.35;;;2.10;;
70667;SDS011;58242;51.250;-1.118;2023-04-25T03:41:41;3.22;;;2.50;;
70667;SDS011;58242;51.250;-1.118;2023-04-25T03:44:07;4.18;;;2.47;;
70667;SDS011;58242;51.250;-1.118;2023-04-25T03:46:32;3.08;;;2.53;;
70667;SDS011;58242;51.250;-1.118;2023-04-25T03:48:57;2.92;;;2.33;;
70667;SDS011;58242;51.250;-1.118;2023-04-25T03:51:24;3.67;;;2.03;;
70667;SDS011;58242;51.250;-1.118;2023-04-25T03:53:50;3.90;;;2.45;;
70667;SDS011;58242;51.250;-1.118;2023-04-25T03:56:15;3.95;;;2.30;;
70667;SDS011;58242;51.250;-1.118;2023-04-25T03:58:40;2.25;;;2.10;;
70667;SDS011;58242;51.250;-1.118;2023-04-25T04:01:06;4.07;;;2.00;;
70667;SDS011;58242;51.250;-1.118;2023-04-25T04:03:35;1.88;;;1.77;;
70667;SDS011;58242;51.250;-1.118;2023-04-25T04:06:04;1.63;;;1.63;;
70667;SDS011;58242;51.250;-1.118;2023-04-25T04:08:31;3.13;;;2.45;;
70667;SDS011;58242;51.250;-1.118;2023-04-25T04:10:57;5.07;;;2.70;;
70667;SDS011;58242;51.250;-1.118;2023-04-25T04:13:25;2.30;;;2.20;;
70667;SDS011;58242;51.250;-1.118;2023-04-25T04:15:54;2.35;;;2.15;;
70667;SDS011;58242;51.250;-1.118;2023-04-25T04:18:20;2.22;;;2.05;;
70667;SDS011;58242;51.250;-1.118;2023-04-25T04:20:46;2.53;;;2.33;;
70667;SDS011;58242;51.250;-1.118;2023-04-25T04:23:11;1.90;;;1.80;;
70667;SDS011;58242;51.250;-1.118;2023-04-25T04:25:37;2.33;;;2.15;;
70667;SDS011;58242;51.250;-1.118;2023-04-25T04:28:02;2.20;;;2.10;;
70667;SDS011;58242;51.250;-1.118;2023-04-25T04:30:28;2.35;;;2.10;;
70667;SDS011;58242;51.250;-1.118;2023-04-25T04:32:56;2.22;;;2.13;;
70667;SDS011;58242;51.250;-1.118;2023-04-25T04:35:22;3.90;;;2.35;;
70667;SDS011;58242;51.250;-1.118;2023-04-25T04:37:48;2.40;;;2.20;;
70667;SDS011;58242;51.250;-1.118;2023-04-25T04:40:14;2.58;;;2.35;;
70667;SDS011;58242;51.250;-1.118;2023-04-25T04:45:09;2.80;;;2.50;;
70667;SDS011;58242;51.250;-1.118;2023-04-25T04:47:35;2.75;;;2.10;;
70667;SDS011;58242;51.250;-1.118;2023-04-25T04:50:01;2.72;;;2.33;;
70667;SDS011;58242;51.250;-1.118;2023-04-25T04:52:27;3.65;;;2.28;;
70667;SDS011;58242;51.250;-1.118;2023-04-25T04:54:52;3.55;;;2.80;;
70667;SDS011;58242;51.250;-1.118;2023-04-25T04:57:18;3.80;;;2.10;;
70667;SDS011;58242;51.250;-1.118;2023-04-25T04:59:43;2.75;;;2.50;;
70667;SDS011;58242;51.250;-1.118;2023-04-25T05:02:08;2.45;;;2.25;;
70667;SDS011;58242;51.250;-1.118;2023-04-25T05:04:34;2.35;;;2.25;;
70667;SDS011;58242;51.250;-1.118;2023-04-25T05:06:59;4.38;;;2.40;;
70667;SDS011;58242;51.250;-1.118;2023-04-25T05:09:24;2.30;;;2.10;;
70667;SDS011;58242;51.250;-1.118;2023-04-25T05:11:51;2.70;;;2.08;;
70667;SDS011;58242;51.250;-1.118;2023-04-25T05:14:16;2.40;;;2.20;;
70667;SDS011;58242;51.250;-1.118;2023-04-25T05:16:42;4.25;;;2.22;;
70667;SDS011;58242;51.250;-1.118;2023-04-25T05:19:08;3.28;;;2.30;;
70667;SDS011;58242;51.250;-1.118;2023-04-25T05:21:33;4.72;;;2.30;;
70667;SDS011;58242;51.250;-1.118;2023-04-25T05:23:59;2.72;;;2.28;;
70667;SDS011;58242;51.250;-1.118;2023-04-25T05:26:25;2.95;;;2.70;;
70667;SDS011;58242;51.250;-1.118;2023-04-25T05:28:50;4.40;;;2.60;;
70667;SDS011;58242;51.250;-1.118;2023-04-25T05:31:16;3.55;;;2.45;;
70667;SDS011;58242;51.250;-1.118;2023-04-25T05:33:41;2.70;;;2.00;;
70667;SDS011;58242;51.250;-1.118;2023-04-25T05:36:07;7.38;;;2.88;;
70667;SDS011;58242;51.250;-1.118;2023-04-25T05:38:32;2.83;;;2.17;;
70667;SDS011;58242;51.250;-1.118;2023-04-25T05:40:58;4.13;;;2.20;;
70667;SDS011;58242;51.250;-1.118;2023-04-25T05:43:23;2.30;;;2.13;;
70667;SDS011;58242;51.250;-1.118;2023-04-25T05:45:48;2.50;;;2.30;;
70667;SDS011;58242;51.250;-1.118;2023-04-25T05:48:13;3.05;;;2.35;;
70667;SDS011;58242;51.250;-1.118;2023-04-25T05:50:39;2.20;;;2.10;;
70667;SDS011;58242;51.250;-1.118;2023-04-25T05:53:04;3.70;;;2.53;;
70667;SDS011;58242;51.250;-1.118;2023-04-25T05:55:30;4.57;;;2.65;;
70667;SDS011;58242;51.250;-1.118;2023-04-25T05:57:56;2.47;;;2.28;;
70667;SDS011;58242;51.250;-1.118;2023-04-25T06:00:21;2.63;;;2.42;;
70667;SDS011;58242;51.250;-1.118;2023-04-25T06:02:47;3.88;;;2.72;;
70667;SDS011;58242;51.250;-1.118;2023-04-25T06:05:13;2.55;;;2.35;;
70667;SDS011;58242;51.250;-1.118;2023-04-25T06:07:38;3.92;;;3.17;;
70667;SDS011;58242;51.250;-1.118;2023-04-25T06:10:04;2.75;;;2.55;;
70667;SDS011;58242;51.250;-1.118;2023-04-25T06:12:31;2.20;;;2.00;;
70667;SDS011;58242;51.250;-1.118;2023-04-25T06:15:00;6.05;;;2.58;;
70667;SDS011;58242;51.250;-1.118;2023-04-25T06:17:25;3.92;;;2.42;;
70667;SDS011;58242;51.250;-1.118;2023-04-25T06:19:51;2.65;;;2.42;;
70667;SDS011;58242;51.250;-1.118;2023-04-25T06:22:16;4.90;;;2.17;;
70667;SDS011;58242;51.250;-1.118;2023-04-25T06:24:41;3.08;;;2.10;;
70667;SDS011;58242;51.250;-1.118;2023-04-25T06:27:07;2.53;;;2.00;;
70667;SDS011;58242;51.250;-1.118;2023-04-25T06:29:32;4.32;;;2.38;;
70667;SDS011;58242;51.250;-1.118;2023-04-25T06:31:57;3.45;;;2.35;;
70667;SDS011;58242;51.250;-1.118;2023-04-25T06:34:23;2.88;;;2.63;;
70667;SDS011;58242;51.250;-1.118;2023-04-25T06:36:48;3.38;;;2.60;;
70667;SDS011;58242;51.250;-1.118;2023-04-25T06:39:13;6.78;;;2.67;;
70667;SDS011;58242;51.250;-1.118;2023-04-25T06:41:38;2.85;;;2.58;;
70667;SDS011;58242;51.250;-1.118;2023-04-25T06:44:04;3.78;;;2.83;;
70667;SDS011;58242;51.250;-1.118;2023-04-25T06:46:29;4.07;;;2.50;;
70667;SDS011;58242;51.250;-1.118;2023-04-25T06:48:54;4.93;;;2.70;;
70667;SDS011;58242;51.250;-1.118;2023-04-25T06:51:20;4.78;;;2.70;;
70667;SDS011;58242;51.250;-1.118;2023-04-25T06:53:45;3.55;;;2.83;;
70667;SDS011;58242;51.250;-1.118;2023-04-25T06:56:11;2.88;;;2.00;;
70667;SDS011;58242;51.250;-1.118;2023-04-25T06:58:36;4.35;;;2.50;;
70667;SDS011;58242;51.250;-1.118;2023-04-25T07:01:01;2.40;;;2.10;;
70667;SDS011;58242;51.250;-1.118;2023-04-25T07:03:27;4.55;;;2.13;;
70667;SDS011;58242;51.250;-1.118;2023-04-25T07:05:52;2.28;;;2.00;;
70667;SDS011;58242;51.250;-1.118;2023-04-25T07:08:17;2.92;;;2.40;;
70667;SDS011;58242;51.250;-1.118;2023-04-25T07:10:42;6.55;;;2.70;;
70667;SDS011;58242;51.250;-1.118;2023-04-25T07:13:08;2.50;;;2.30;;
70667;SDS011;58242;51.250;-1.118;2023-04-25T07:15:33;2.60;;;2.40;;
70667;SDS011;58242;51.250;-1.118;2023-04-25T07:17:59;6.60;;;2.42;;
70667;SDS011;58242;51.250;-1.118;2023-04-25T07:20:24;2.33;;;2.13;;
70667;SDS011;58242;51.250;-1.118;2023-04-25T07:22:50;2.90;;;2.55;;
70667;SDS011;58242;51.250;-1.118;2023-04-25T07:25:15;4.25;;;2.72;;
70667;SDS011;58242;51.250;-1.118;2023-04-25T07:27:41;2.88;;;2.22;;
70667;SDS011;58242;51.250;-1.118;2023-04-25T07:30:07;3.63;;;1.98;;
70667;SDS011;58242;51.250;-1.118;2023-04-25T07:32:32;2.90;;;2.00;;
70667;SDS011;58242;51.250;-1.118;2023-04-25T07:34:58;3.35;;;2.33;;
70667;SDS011;58242;51.250;-1.118;2023-04-25T07:37:23;4.45;;;2.60;;
70667;SDS011;58242;51.250;-1.118;2023-04-25T07:39:48;2.80;;;2.50;;
70667;SDS011;58242;51.250;-1.118;2023-04-25T07:42:14;2.83;;;2.33;;
70667;SDS011;58242;51.250;-1.118;2023-04-25T07:44:39;3.97;;;2.00;;
70667;SDS011;58242;51.250;-1.118;2023-04-25T07:47:08;4.15;;;2.20;;
70667;SDS011;58242;51.250;-1.118;2023-04-25T07:52:00;5.47;;;2.00;;
70667;SDS011;58242;51.250;-1.118;2023-04-25T07:54:26;3.55;;;2.15;;
70667;SDS011;58242;51.250;-1.118;2023-04-25T07:56:51;2.13;;;2.00;;
70667;SDS011;58242;51.250;-1.118;2023-04-25T07:59:17;4.07;;;2.63;;
70667;SDS011;58242;51.250;-1.118;2023-04-25T08:01:42;2.90;;;2.45;;
70667;SDS011;58242;51.250;-1.118;2023-04-25T08:04:07;1.73;;;1.63;;
70667;SDS011;58242;51.250;-1.118;2023-04-25T08:06:32;2.83;;;1.98;;
70667;SDS011;58242;51.250;-1.118;2023-04-25T08:08:58;3.33;;;2.50;;
70667;SDS011;58242;51.250;-1.118;2023-04-25T08:11:23;3.58;;;2.50;;
70667;SDS011;58242;51.250;-1.118;2023-04-25T08:13:48;4.60;;;2.55;;
70667;SDS011;58242;51.250;-1.118;2023-04-25T08:16:14;3.05;;;2.38;;
70667;SDS011;58242;51.250;-1.118;2023-04-25T08:18:39;3.53;;;2.08;;
70667;SDS011;58242;51.250;-1.118;2023-04-25T08:21:05;2.53;;;2.33;;
70667;SDS011;58242;51.250;-1.118;2023-04-25T08:23:31;4.15;;;2.25;;
70667;SDS011;58242;51.250;-1.118;2023-04-25T08:25:56;3.42;;;2.67;;
70667;SDS011;58242;51.250;-1.118;2023-04-25T08:28:22;3.15;;;2.17;;
70667;SDS011;58242;51.250;-1.118;2023-04-25T08:30:47;3.03;;;2.05;;
70667;SDS011;58242;51.250;-1.118;2023-04-25T08:33:12;3.47;;;2.20;;
70667;SDS011;58242;51.250;-1.118;2023-04-25T08:35:38;3.45;;;1.88;;
70667;SDS011;58242;51.250;-1.118;2023-04-25T08:38:03;1.95;;;1.80;;
70667;SDS011;58242;51.250;-1.118;2023-04-25T08:40:28;2.47;;;1.90;;
70667;SDS011;58242;51.250;-1.118;2023-04-25T08:42:56;3.42;;;2.08;;
70667;SDS011;58242;51.250;-1.118;2023-04-25T08:45:22;1.50;;;1.38;;
70667;SDS011;58242;51.250;-1.118;2023-04-25T08:47:48;2.78;;;2.00;;
70667;SDS011;58242;51.250;-1.118;2023-04-25T08:52:45;1.75;;;1.65;;
70667;SDS011;58242;51.250;-1.118;2023-04-25T08:55:11;3.22;;;2.13;;
70667;SDS011;58242;51.250;-1.118;2023-04-25T08:57:38;3.00;;;2.15;;
70667;SDS011;58242;51.250;-1.118;2023-04-25T09:00:04;3.05;;;2.40;;
70667;SDS011;58242;51.250;-1.118;2023-04-25T09:02:30;4.55;;;2.65;;
70667;SDS011;58242;51.250;-1.118;2023-04-25T09:04:56;2.80;;;2.13;;
70667;SDS011;58242;51.250;-1.118;2023-04-25T09:07:22;3.90;;;2.13;;
70667;SDS011;58242;51.250;-1.118;2023-04-25T09:09:47;2.38;;;2.17;;
70667;SDS011;58242;51.250;-1.118;2023-04-25T09:12:13;2.53;;;2.30;;
70667;SDS011;58242;51.250;-1.118;2023-04-25T09:14:38;3.30;;;2.63;;
70667;SDS011;58242;51.250;-1.118;2023-04-25T09:17:04;2.88;;;2.45;;
70667;SDS011;58242;51.250;-1.118;2023-04-25T09:19:33;2.97;;;2.30;;
70667;SDS011;58242;51.250;-1.118;2023-04-25T09:22:04;2.80;;;2.33;;
70667;SDS011;58242;51.250;-1.118;2023-04-25T09:24:34;2.17;;;2.08;;
70667;SDS011;58242;51.250;-1.118;2023-04-25T09:27:04;3.22;;;2.35;;
70667;SDS011;58242;51.250;-1.118;2023-04-25T09:29:34;2.70;;;2.35;;
70667;SDS011;58242;51.250;-1.118;2023-04-25T09:34:39;2.78;;;1.92;;
70667;SDS011;58242;51.250;-1.118;2023-04-25T09:37:07;2.07;;;1.87;;
70667;SDS011;58242;51.250;-1.118;2023-04-25T09:39:36;2.30;;;2.10;;
70667;SDS011;58242;51.250;-1.118;2023-04-25T09:42:02;2.42;;;2.10;;
70667;SDS011;58242;51.250;-1.118;2023-04-25T09:44:28;2.53;;;2.10;;
70667;SDS011;58242;51.250;-1.118;2023-04-25T09:46:54;2.80;;;2.55;;
70667;SDS011;58242;51.250;-1.118;2023-04-25T09:49:20;3.22;;;2.30;;
70667;SDS011;58242;51.250;-1.118;2023-04-25T09:51:55;3.17;;;2.63;;
70667;SDS011;58242;51.250;-1.118;2023-04-25T09:54:22;2.10;;;2.00;;
70667;SDS011;58242;51.250;-1.118;2023-04-25T09:56:48;2.78;;;2.42;;
70667;SDS011;58242;51.250;-1.118;2023-04-25T10:01:44;1.85;;;1.67;;
70667;SDS011;58242;51.250;-1.118;2023-04-25T10:04:10;2.40;;;2.20;;
70667;SDS011;58242;51.250;-1.118;2023-04-25T10:06:37;2.22;;;2.03;;
70667;SDS011;58242;51.250;-1.118;2023-04-25T10:09:03;1.98;;;1.80;;
70667;SDS011;58242;51.250;-1.118;2023-04-25T10:11:29;2.55;;;2.10;;
70667;SDS011;58242;51.250;-1.118;2023-04-25T10:13:56;2.55;;;1.60;;
70667;SDS011;58242;51.250;-1.118;2023-04-25T10:16:22;1.75;;;1.65;;
70667;SDS011;58242;51.250;-1.118;2023-04-25T10:18:47;1.80;;;1.70;;
70667;SDS011;58242;51.250;-1.118;2023-04-25T10:21:13;1.80;;;1.70;;
70667;SDS011;58242;51.250;-1.118;2023-04-25T10:23:40;2.38;;;1.50;;
70667;SDS011;58242;51.250;-1.118;2023-04-25T10:26:07;1.70;;;1.60;;
70667;SDS011;58242;51.250;-1.118;2023-04-25T10:31:32;1.25;;;1.15;;
70667;SDS011;58242;51.250;-1.118;2023-04-25T10:33:59;2.58;;;1.65;;
70667;SDS011;58242;51.250;-1.118;2023-04-25T10:36:25;1.10;;;1.10;;
70667;SDS011;58242;51.250;-1.118;2023-04-25T10:38:52;1.25;;;1.25;;
70667;SDS011;58242;51.250;-1.118;2023-04-25T10:41:21;1.40;;;1.30;;
70667;SDS011;58242;51.250;-1.118;2023-04-25T10:43:48;3.78;;;1.75;;
70667;SDS011;58242;51.250;-1.118;2023-04-25T10:46:27;1.30;;;1.30;;
70667;SDS011;58242;51.250;-1.118;2023-04-25T10:48:56;1.40;;;1.30;;
70667;SDS011;58242;51.250;-1.118;2023-04-25T10:51:27;1.60;;;1.48;;
70667;SDS011;58242;51.250;-1.118;2023-04-25T10:54:00;2.08;;;1.83;;
70667;SDS011;58242;51.250;-1.118;2023-04-25T10:59:02;1.70;;;1.60;;
70667;SDS011;58242;51.250;-1.118;2023-04-25T11:01:28;2.03;;;1.83;;
70667;SDS011;58242;51.250;-1.118;2023-04-25T11:04:01;1.88;;;1.60;;
70667;SDS011;58242;51.250;-1.118;2023-04-25T11:09:02;3.08;;;1.98;;
70667;SDS011;58242;51.250;-1.118;2023-04-25T11:11:28;2.58;;;2.10;;
70667;SDS011;58242;51.250;-1.118;2023-04-25T11:13:54;2.08;;;1.73;;
70667;SDS011;58242;51.250;-1.118;2023-04-25T11:16:19;3.00;;;2.55;;
70667;SDS011;58242;51.250;-1.118;2023-04-25T11:19:11;2.22;;;2.08;;
70667;SDS011;58242;51.250;-1.118;2023-04-25T11:21:36;2.30;;;2.10;;
70667;SDS011;58242;51.250;-1.118;2023-04-25T11:24:02;2.20;;;1.77;;
70667;SDS011;58242;51.250;-1.118;2023-04-25T11:26:27;2.20;;;1.90;;
70667;SDS011;58242;51.250;-1.118;2023-04-25T11:28:56;1.77;;;1.63;;
70667;SDS011;58242;51.250;-1.118;2023-04-25T11:31:24;1.95;;;1.40;;
70667;SDS011;58242;51.250;-1.118;2023-04-25T11:33:50;1.92;;;1.60;;
70667;SDS011;58242;51.250;-1.118;2023-04-25T11:36:16;1.75;;;1.65;;
70667;SDS011;58242;51.250;-1.118;2023-04-25T11:38:41;1.50;;;1.40;;
70667;SDS011;58242;51.250;-1.118;2023-04-25T11:41:07;2.05;;;1.83;;
70667;SDS011;58242;51.250;-1.118;2023-04-25T11:43:32;1.70;;;1.60;;
70667;SDS011;58242;51.250;-1.118;2023-04-25T11:45:57;1.70;;;1.60;;
70667;SDS011;58242;51.250;-1.118;2023-04-25T11:48:23;2.25;;;1.80;;
70667;SDS011;58242;51.250;-1.118;2023-04-25T11:50:48;2.72;;;1.73;;
70667;SDS011;58242;51.250;-1.118;2023-04-25T11:53:13;1.75;;;1.65;;
70667;SDS011;58242;51.250;-1.118;2023-04-25T11:55:38;2.38;;;2.08;;
70667;SDS011;58242;51.250;-1.118;2023-04-25T11:58:05;1.80;;;1.65;;
70667;SDS011;58242;51.250;-1.118;2023-04-25T12:00:30;2.00;;;1.80;;
70667;SDS011;58242;51.250;-1.118;2023-04-25T12:02:56;2.28;;;1.80;;
70667;SDS011;58242;51.250;-1.118;2023-04-25T12:05:28;1.98;;;1.88;;
70667;SDS011;58242;51.250;-1.118;2023-04-25T12:07:56;1.95;;;1.70;;
70667;SDS011;58242;51.250;-1.118;2023-04-25T12:10:23;1.60;;;1.50;;
70667;SDS011;58242;51.250;-1.118;2023-04-25T12:12:50;1.63;;;1.53;;
70667;SDS011;58242;51.250;-1.118;2023-04-25T12:15:16;3.40;;;1.70;;
70667;SDS011;58242;51.250;-1.118;2023-04-25T12:17:49;1.58;;;1.48;;
70667;SDS011;58242;51.250;-1.118;2023-04-25T12:20:17;1.63;;;1.40;;
70667;SDS011;58242;51.250;-1.118;2023-04-25T12:22:45;1.55;;;1.42;;
70667;SDS011;58242;51.250;-1.118;2023-04-25T12:25:56;1.95;;;1.58;;
70667;SDS011;58242;51.250;-1.118;2023-04-25T12:30:59;2.30;;;1.58;;
70667;SDS011;58242;51.250;-1.118;2023-04-25T12:33:33;1.50;;;1.30;;
70667;SDS011;58242;51.250;-1.118;2023-04-25T12:36:00;1.33;;;1.23;;
70667;SDS011;58242;51.250;-1.118;2023-04-25T12:38:31;1.80;;;1.70;;
70667;SDS011;58242;51.250;-1.118;2023-04-25T12:41:02;1.60;;;1.50;;
70667;SDS011;58242;51.250;-1.118;2023-04-25T12:43:27;2.45;;;1.88;;
70667;SDS011;58242;51.250;-1.118;2023-04-25T12:45:53;2.15;;;1.95;;
70667;SDS011;58242;51.250;-1.118;2023-04-25T12:48:20;1.70;;;1.60;;
70667;SDS011;58242;51.250;-1.118;2023-04-25T12:50:47;2.90;;;2.53;;
70667;SDS011;58242;51.250;-1.118;2023-04-25T12:53:16;1.92;;;1.75;;
70667;SDS011;58242;51.250;-1.118;2023-04-25T12:55:42;2.70;;;2.05;;
70667;SDS011;58242;51.250;-1.118;2023-04-25T12:58:08;2.22;;;1.55;;
70667;SDS011;58242;51.250;-1.118;2023-04-25T13:00:33;2.05;;;1.42;;
70667;SDS011;58242;51.250;-1.118;2023-04-25T13:02:59;1.63;;;1.52;;
70667;SDS011;58242;51.250;-1.118;2023-04-25T13:05:24;2.20;;;1.88;;
70667;SDS011;58242;51.250;-1.118;2023-04-25T13:07:50;2.45;;;2.05;;
70667;SDS011;58242;51.250;-1.118;2023-04-25T13:10:16;3.75;;;2.00;;
70667;SDS011;58242;51.250;-1.118;2023-04-25T13:12:42;2.15;;;1.98;;
70667;SDS011;58242;51.250;-1.118;2023-04-25T13:15:08;3.78;;;2.33;;
70667;SDS011;58242;51.250;-1.118;2023-04-25T13:17:36;2.50;;;2.03;;
70667;SDS011;58242;51.250;-1.118;2023-04-25T13:20:01;2.17;;;1.98;;
70667;SDS011;58242;51.250;-1.118;2023-04-25T13:22:26;2.13;;;1.90;;
70667;SDS011;58242;51.250;-1.118;2023-04-25T13:24:52;2.42;;;2.33;;
70667;SDS011;58242;51.250;-1.118;2023-04-25T13:27:17;3.10;;;2.05;;
70667;SDS011;58242;51.250;-1.118;2023-04-25T13:29:42;2.33;;;2.00;;
70667;SDS011;58242;51.250;-1.118;2023-04-25T13:32:08;2.30;;;2.10;;
70667;SDS011;58242;51.250;-1.118;2023-04-25T13:34:34;5.68;;;2.20;;
70667;SDS011;58242;51.250;-1.118;2023-04-25T13:36:59;5.50;;;2.72;;
70667;SDS011;58242;51.250;-1.118;2023-04-25T13:39:25;3.35;;;2.10;;
70667;SDS011;58242;51.250;-1.118;2023-04-25T13:41:50;2.92;;;2.50;;
70667;SDS011;58242;51.250;-1.118;2023-04-25T13:44:15;2.78;;;2.15;;
70667;SDS011;58242;51.250;-1.118;2023-04-25T13:46:41;2.33;;;2.22;;
70667;SDS011;58242;51.250;-1.118;2023-04-25T13:49:06;2.15;;;1.95;;
70667;SDS011;58242;51.250;-1.118;2023-04-25T13:51:32;4.38;;;2.65;;
70667;SDS011;58242;51.250;-1.118;2023-04-25T13:53:57;2.25;;;2.05;;
70667;SDS011;58242;51.250;-1.118;2023-04-25T13:56:22;3.00;;;2.72;;
70667;SDS011;58242;51.250;-1.118;2023-04-25T13:58:48;2.65;;;1.88;;
70667;SDS011;58242;51.250;-1.118;2023-04-25T14:01:15;2.75;;;2.55;;
70667;SDS011;58242;51.250;-1.118;2023-04-25T14:03:40;2.33;;;2.10;;
70667;SDS011;58242;51.250;-1.118;2023-04-25T14:06:06;3.05;;;2.05;;
70667;SDS011;58242;51.250;-1.118;2023-04-25T14:08:31;2.80;;;2.63;;
70667;SDS011;58242;51.250;-1.118;2023-04-25T14:10:57;2.95;;;2.58;;
70667;SDS011;58242;51.250;-1.118;2023-04-25T14:13:22;2.67;;;2.47;;
70667;SDS011;58242;51.250;-1.118;2023-04-25T14:15:48;3.58;;;2.60;;
70667;SDS011;58242;51.250;-1.118;2023-04-25T14:18:15;2.28;;;2.10;;
70667;SDS011;58242;51.250;-1.118;2023-04-25T14:20:40;2.33;;;2.13;;
70667;SDS011;58242;51.250;-1.118;2023-04-25T14:23:06;2.50;;;2.30;;
70667;SDS011;58242;51.250;-1.118;2023-04-25T14:25:31;2.50;;;2.30;;
70667;SDS011;58242;51.250;-1.118;2023-04-25T14:27:57;2.20;;;2.00;;
70667;SDS011;58242;51.250;-1.118;2023-04-25T14:30:22;2.40;;;2.20;;
70667;SDS011;58242;51.250;-1.118;2023-04-25T14:32:50;3.15;;;2.42;;
70667;SDS011;58242;51.250;-1.118;2023-04-25T14:35:16;2.08;;;1.98;;
70667;SDS011;58242;51.250;-1.118;2023-04-25T14:37:41;2.45;;;2.25;;
70667;SDS011;58242;51.250;-1.118;2023-04-25T14:40:07;2.13;;;2.03;;
70667;SDS011;58242;51.250;-1.118;2023-04-25T14:42:37;2.00;;;1.90;;
70667;SDS011;58242;51.250;-1.118;2023-04-25T14:45:03;2.45;;;2.25;;
70667;SDS011;58242;51.250;-1.118;2023-04-25T14:47:29;2.13;;;2.03;;
70667;SDS011;58242;51.250;-1.118;2023-04-25T14:49:54;3.05;;;2.20;;